createdAt,value
2022-09-29T00:02:13.200Z,98360.00
2022-09-29T00:07:18.953Z,98366.06
2022-09-29T00:12:23.621Z,98352.03
2022-09-29T00:17:27.091Z,98355.59
2022-09-29T00:22:34.245Z,98354.81
2022-09-29T00:27:37.478Z,98354.97
2022-09-29T00:32:41.933Z,98347.66
2022-09-29T00:37:47.014Z,98351.00
2022-09-29T00:42:49.662Z,98348.28
2022-09-29T00:48:00.510Z,98346.00
2022-09-29T00:53:04.210Z,98320.59
2022-09-29T00:58:09.203Z,98318.84
2022-09-29T01:03:22.827Z,98320.53
2022-09-29T01:08:29.737Z,98320.91
2022-09-29T01:13:35.429Z,98319.63
2022-09-29T01:18:37.918Z,98323.50
2022-09-29T01:23:43.425Z,98317.16
2022-09-29T01:29:06.655Z,98315.13
2022-09-29T01:34:12.825Z,98304.44
2022-09-29T01:39:17.880Z,98301.41
2022-09-29T01:44:27.181Z,98305.31
2022-09-29T01:49:32.468Z,98296.53
2022-09-29T01:54:48.823Z,98280.38
2022-09-29T02:00:20.155Z,98297.97
2022-09-29T02:05:43.888Z,98293.28
2022-09-29T02:10:53.937Z,98283.44
2022-09-29T02:15:57.596Z,98281.97
2022-09-29T02:20:59.967Z,98280.56
2022-09-29T02:26:02.908Z,98286.22
2022-09-29T02:31:07.859Z,98289.06
2022-09-29T02:36:22.073Z,98292.84
2022-09-29T02:41:24.327Z,98295.38
2022-09-29T02:46:36.658Z,98303.00
2022-09-29T02:51:47.620Z,98286.59
2022-09-29T02:57:11.553Z,98277.22
2022-09-29T03:02:16.476Z,98284.69
2022-09-29T03:07:21.924Z,98302.81
2022-09-29T03:12:24.645Z,98291.94
2022-09-29T03:17:31.810Z,98294.91
2022-09-29T03:22:34.276Z,98304.97
2022-09-29T03:27:38.513Z,98318.19
2022-09-29T03:32:45.981Z,98288.28
2022-09-29T03:37:48.257Z,98297.38
2022-09-29T03:42:52.662Z,98302.19
2022-09-29T03:47:56.162Z,98317.47
2022-09-29T03:52:59.156Z,98338.47
2022-09-29T03:58:01.429Z,98318.59
2022-09-29T04:03:04.598Z,98317.16
2022-09-29T04:08:07.122Z,98298.09
2022-09-29T04:13:14.573Z,98305.44
2022-09-29T04:18:20.087Z,98304.00
2022-09-29T04:23:24.054Z,98315.69
2022-09-29T04:28:26.659Z,98315.28
2022-09-29T04:33:44.948Z,98330.66
2022-09-29T04:38:48.759Z,98319.63
2022-09-29T04:43:52.698Z,98329.56
2022-09-29T04:48:54.963Z,98332.28
2022-09-29T04:53:58.838Z,98331.63
2022-09-29T04:59:03.730Z,98330.06
2022-09-29T05:04:06.153Z,98331.84
2022-09-29T05:09:08.787Z,98333.28
2022-09-29T05:20:43.771Z,98332.31
2022-09-29T05:31:08.093Z,98350.28
2022-09-29T05:36:12.141Z,98352.13
2022-09-29T05:41:23.544Z,98350.47
2022-09-29T05:46:25.835Z,98371.91
2022-09-29T05:51:34.557Z,98373.66
2022-09-29T05:56:43.155Z,98374.19
2022-09-29T06:01:48.792Z,98371.00
2022-09-29T06:06:58.249Z,98362.06
2022-09-29T06:12:03.571Z,98370.44
2022-09-29T06:17:10.158Z,98364.00
2022-09-29T06:22:13.138Z,98365.78
2022-09-29T06:27:17.587Z,98371.84
2022-09-29T06:32:20.801Z,98378.91
2022-09-29T06:37:35.286Z,98370.13
2022-09-29T06:42:39.082Z,98340.16
2022-09-29T06:47:43.773Z,98365.38
2022-09-29T06:53:01.751Z,98362.50
2022-09-29T06:58:09.554Z,98370.66
2022-09-29T07:03:12.663Z,98366.38
2022-09-29T07:08:19.193Z,98371.69
2022-09-29T07:13:22.494Z,98374.19
2022-09-29T07:18:26.049Z,98379.13
2022-09-29T07:23:28.904Z,98367.06
2022-09-29T07:28:41.143Z,98378.31
2022-09-29T07:33:47.679Z,98383.63
2022-09-29T07:38:51.719Z,98390.56
2022-09-29T07:43:54.735Z,98411.34
2022-09-29T07:48:57.611Z,98397.88
2022-09-29T07:54:15.781Z,98409.59
2022-09-29T08:05:35.486Z,98397.19
2022-09-29T08:18:11.380Z,98398.91
2022-09-29T08:23:13.699Z,98397.97
2022-09-29T08:28:27.140Z,98409.53
2022-09-29T08:33:31.183Z,98414.72
2022-09-29T08:38:34.058Z,98398.72
2022-09-29T08:43:43.255Z,98405.94
2022-09-29T08:48:56.761Z,98411.97
2022-09-29T08:54:06.689Z,98414.09
2022-09-29T08:59:11.603Z,98416.09
2022-09-29T09:04:29.746Z,98410.38
2022-09-29T09:09:46.189Z,98420.22
2022-09-29T09:14:52.284Z,98423.56
2022-09-29T09:20:02.033Z,98427.88
2022-09-29T09:25:08.458Z,98422.94
2022-09-29T09:30:21.862Z,98426.06
2022-09-29T09:35:24.448Z,98415.34
2022-09-29T09:40:29.854Z,98423.03
2022-09-29T09:45:38.301Z,98393.94
2022-09-29T09:50:43.637Z,98419.47
2022-09-29T09:55:53.963Z,98424.56
2022-09-29T10:01:03.371Z,98447.22
2022-09-29T10:06:09.525Z,98468.50
2022-09-29T10:11:15.700Z,98464.53
2022-09-29T10:16:21.197Z,98447.59
2022-09-29T10:21:32.221Z,98446.50
2022-09-29T10:26:45.327Z,98443.94
2022-09-29T10:32:07.850Z,98479.94
2022-09-29T10:37:23.735Z,98447.75
2022-09-29T10:42:33.466Z,98379.84
2022-09-29T10:47:38.971Z,98430.31
2022-09-29T10:53:08.927Z,98448.91
2022-09-29T10:58:45.407Z,98399.63
2022-09-29T11:04:57.309Z,98413.09
2022-09-29T11:09:59.758Z,98450.88
2022-09-29T11:15:02.951Z,98423.31
2022-09-29T11:20:07.116Z,98428.41
2022-09-29T11:25:24.668Z,98424.38
2022-09-29T11:30:31.125Z,98443.13
2022-09-29T11:35:45.245Z,98436.56
2022-09-29T11:40:51.598Z,98407.75
2022-09-29T11:46:16.477Z,98434.53
2022-09-29T11:51:39.033Z,98441.09
2022-09-29T11:56:47.364Z,98452.44
2022-09-29T12:01:50.036Z,98434.03
2022-09-29T12:06:55.785Z,98438.84
2022-09-29T12:12:24.821Z,98420.47
2022-09-29T12:17:29.402Z,98396.06
2022-09-29T12:22:44.943Z,98382.41
2022-09-29T12:27:48.501Z,98376.78
2022-09-29T12:33:09.261Z,98348.81
2022-09-29T12:38:30.455Z,98366.94
2022-09-29T12:43:36.071Z,98359.03
2022-09-29T12:48:57.443Z,98355.81
2022-09-29T12:54:14.557Z,98357.69
2022-09-29T12:59:40.128Z,98349.66
2022-09-29T13:05:03.904Z,98362.75
2022-09-29T13:10:14.261Z,98368.63
2022-09-29T13:15:46.674Z,98360.19
2022-09-29T13:20:59.985Z,98365.97
2022-09-29T13:26:29.426Z,98358.03
2022-09-29T13:31:36.223Z,98338.91
2022-09-29T13:36:41.611Z,98344.00
2022-09-29T13:41:45.315Z,98326.09
2022-09-29T13:46:49.001Z,98328.13
2022-09-29T13:51:55.221Z,98343.19
2022-09-29T13:57:01.963Z,98324.91
2022-09-29T14:02:20.202Z,98277.81
2022-09-29T14:07:38.247Z,98306.00
2022-09-29T14:12:41.585Z,98287.38
2022-09-29T14:17:52.047Z,98281.56
2022-09-29T14:23:01.861Z,98287.63
2022-09-29T14:28:08.578Z,98271.88
2022-09-29T14:33:16.996Z,98257.66
2022-09-29T14:38:29.703Z,98238.88
2022-09-29T14:43:44.095Z,98233.03
2022-09-29T14:49:28.179Z,98253.53
2022-09-29T14:54:39.551Z,98257.69
2022-09-29T15:00:17.459Z,98295.00
2022-09-29T15:05:33.337Z,98257.53
2022-09-29T15:10:41.725Z,98290.44
2022-09-29T15:16:00.548Z,98286.66
2022-09-29T15:21:21.892Z,98287.63
2022-09-29T15:26:27.949Z,98298.16
2022-09-29T15:36:55.285Z,98292.56
2022-09-29T15:42:02.688Z,98294.22
2022-09-29T15:47:05.038Z,98305.16
2022-09-29T15:52:11.945Z,98310.47
2022-09-29T15:57:57.882Z,98326.47
2022-09-29T16:03:03.139Z,98332.56
2022-09-29T16:08:05.593Z,98317.13
2022-09-29T16:13:18.192Z,98313.59
2022-09-29T16:18:22.120Z,98319.81
2022-09-29T16:23:28.431Z,98310.63
2022-09-29T16:28:33.831Z,98307.44
2022-09-29T16:33:36.775Z,98303.88
2022-09-29T16:38:45.673Z,98298.09
2022-09-29T16:43:49.066Z,98297.69
2022-09-29T16:48:51.580Z,98285.38
2022-09-29T16:53:58.263Z,98308.25
2022-09-29T16:59:03.307Z,98315.19
2022-09-29T17:04:12.779Z,98309.41
2022-09-29T17:09:18.190Z,98333.81
2022-09-29T17:14:21.856Z,98334.69
2022-09-29T17:19:24.211Z,98330.53
2022-09-29T17:24:26.518Z,98329.31
2022-09-29T17:29:31.155Z,98337.94
2022-09-29T17:34:33.441Z,98334.38
2022-09-29T17:39:35.705Z,98332.34
2022-09-29T17:44:42.472Z,98332.91
2022-09-29T17:49:52.752Z,98335.72
2022-09-29T17:54:54.921Z,98332.13
2022-09-29T18:00:00.232Z,98326.81
2022-09-29T18:05:03.474Z,98321.53
2022-09-29T18:10:24.786Z,98331.88
2022-09-29T18:15:27.490Z,98313.34
2022-09-29T18:20:32.940Z,98345.22
2022-09-29T18:25:35.369Z,98319.28
2022-09-29T18:30:40.176Z,98338.13
2022-09-29T18:35:45.793Z,98328.41
2022-09-29T18:40:51.667Z,98343.72
2022-09-29T18:45:58.288Z,98342.84
2022-09-29T18:51:00.847Z,98338.34
2022-09-29T18:56:04.453Z,98347.06
2022-09-29T19:01:07.446Z,98336.34
2022-09-29T19:06:14.893Z,98361.38
2022-09-29T19:11:18.545Z,98345.22
2022-09-29T19:16:23.913Z,98346.81
2022-09-29T19:21:28.638Z,98359.56
2022-09-29T19:26:33.416Z,98317.78
2022-09-29T19:31:38.719Z,98361.19
2022-09-29T19:36:41.232Z,98385.28
2022-09-29T19:41:43.735Z,98383.69
2022-09-29T19:46:48.048Z,98401.34
2022-09-29T19:51:56.797Z,98398.25
2022-09-29T19:57:03.297Z,98427.94
2022-09-29T20:02:16.533Z,98429.34
2022-09-29T20:07:19.062Z,98421.00
2022-09-29T20:12:24.720Z,98420.03
2022-09-29T20:17:27.861Z,98376.19
2022-09-29T20:22:34.144Z,98393.56
2022-09-29T20:27:37.243Z,98366.56
2022-09-29T20:32:39.744Z,98367.94
2022-09-29T20:37:44.549Z,98376.28
2022-09-29T20:42:49.928Z,98375.78
2022-09-29T20:47:53.684Z,98435.56
2022-09-29T20:53:01.089Z,98404.69
2022-09-29T20:58:03.815Z,98410.75
2022-09-29T22:22:11.340Z,98392.34
2022-09-29T22:42:22.974Z,98493.47
2022-09-29T22:47:27.698Z,98513.06
2022-09-29T22:52:30.200Z,98516.63
2022-09-29T22:57:34.620Z,98457.69
2022-09-29T23:02:37.080Z,98508.31
2022-09-29T23:07:40.079Z,98509.88
2022-09-29T23:12:43.238Z,98510.31
2022-09-29T23:17:45.979Z,98518.06
2022-09-29T23:22:48.470Z,98499.63
2022-09-29T23:28:05.381Z,98517.34
2022-09-29T23:33:07.909Z,98536.44
2022-09-29T23:38:29.723Z,98520.59
2022-09-29T23:43:34.251Z,98519.50
2022-09-29T23:48:36.658Z,98525.72
2022-09-29T23:53:43.433Z,98512.59
2022-09-29T23:58:56.497Z,98526.19
